createdAt,value
2018-07-09T00:00:50.771Z,67.84
2018-07-09T00:01:50.758Z,67.26
2018-07-09T00:02:50.746Z,67.16
2018-07-09T00:03:50.734Z,66.69
2018-07-09T00:04:50.724Z,67.65
2018-07-09T00:05:50.711Z,66.78
2018-07-09T00:06:50.711Z,67.84
2018-07-09T00:07:50.689Z,68.52
2018-07-09T00:08:50.676Z,68.71
2018-07-09T00:09:50.669Z,69.29
2018-07-09T00:10:50.656Z,68.52
2018-07-09T00:11:50.641Z,68.80
2018-07-09T00:12:50.630Z,68.52
2018-07-09T00:13:50.620Z,68.90
2018-07-09T00:14:50.610Z,68.42
2018-07-09T00:15:50.595Z,68.61
2018-07-09T00:16:50.586Z,68.52
2018-07-09T00:17:50.571Z,68.80
2018-07-09T00:18:50.564Z,69.87
2018-07-09T00:19:50.552Z,69.19
2018-07-09T00:20:50.541Z,68.80
2018-07-09T00:21:50.523Z,69.19
2018-07-09T00:22:50.512Z,68.42
2018-07-09T00:23:50.521Z,69.19
2018-07-09T00:24:50.489Z,69.19
2018-07-09T00:25:50.480Z,69.67
2018-07-09T00:26:50.466Z,69.25
2018-07-09T00:27:50.452Z,69.93
2018-07-09T00:28:50.444Z,69.77
2018-07-09T00:29:50.428Z,69.83
2018-07-09T00:30:50.419Z,68.77
2018-07-09T00:31:50.406Z,69.73
2018-07-09T00:32:50.394Z,69.73
2018-07-09T00:33:50.382Z,69.93
2018-07-09T00:34:50.373Z,70.21
2018-07-09T00:35:50.360Z,70.60
2018-07-09T00:36:50.348Z,71.28
2018-07-09T00:37:50.341Z,71.28
2018-07-09T00:38:50.328Z,70.12
2018-07-09T00:39:50.311Z,71.28
2018-07-09T00:40:50.310Z,70.70
2018-07-09T00:41:50.287Z,70.79
2018-07-09T00:42:50.275Z,70.70
2018-07-09T00:43:50.263Z,71.43
2018-07-09T00:44:50.252Z,71.43
2018-07-09T00:45:50.239Z,71.81
2018-07-09T00:46:50.233Z,71.43
2018-07-09T00:47:50.215Z,72.59
2018-07-09T00:48:50.207Z,72.49
2018-07-09T00:49:50.195Z,72.78
2018-07-09T00:50:50.382Z,73.46
2018-07-09T00:55:13.526Z,74.41
2018-07-09T00:56:13.511Z,74.51
2018-07-09T00:57:13.500Z,73.90
2018-07-09T00:58:13.488Z,73.99
2018-07-09T00:59:13.476Z,74.09
2018-07-09T01:00:13.469Z,74.76
2018-07-09T01:01:13.452Z,74.67
2018-07-09T01:02:13.441Z,74.76
2018-07-09T01:04:00.966Z,74.67
2018-07-09T01:05:00.956Z,75.15
2018-07-09T01:06:00.947Z,75.73
2018-07-09T01:07:00.931Z,73.90
2018-07-09T01:08:00.927Z,74.38
2018-07-09T01:09:00.907Z,74.76
2018-07-09T01:10:00.892Z,74.29
2018-07-09T01:11:00.893Z,74.19
2018-07-09T01:12:00.875Z,74.19
2018-07-09T01:13:00.859Z,74.67
2018-07-09T01:14:00.844Z,75.24
2018-07-09T01:15:00.833Z,74.48
2018-07-09T01:16:00.821Z,74.86
2018-07-09T01:17:00.815Z,74.29
2018-07-09T01:18:00.796Z,74.57
2018-07-09T01:19:00.784Z,74.86
2018-07-09T01:20:00.771Z,75.24
2018-07-09T01:21:00.760Z,75.63
2018-07-09T01:22:00.747Z,74.96
2018-07-09T01:23:00.736Z,75.44
2018-07-09T01:24:00.722Z,75.44
2018-07-09T01:25:00.711Z,75.92
2018-07-09T01:26:00.698Z,75.05
2018-07-09T01:27:00.689Z,74.96
2018-07-09T01:28:00.674Z,75.15
2018-07-09T01:29:00.659Z,75.05
2018-07-09T01:30:00.649Z,75.24
2018-07-09T01:31:00.635Z,75.63
2018-07-09T01:32:00.635Z,75.44
2018-07-09T01:33:00.612Z,75.44
2018-07-09T01:34:00.598Z,75.92
2018-07-09T01:35:00.586Z,75.98
2018-07-09T01:36:00.575Z,75.31
2018-07-09T01:37:00.562Z,76.01
2018-07-09T01:38:00.548Z,75.24
2018-07-09T01:39:00.536Z,75.24
2018-07-09T01:40:00.524Z,75.82
2018-07-09T01:41:00.510Z,75.59
2018-07-09T01:42:00.500Z,75.98
2018-07-09T01:43:00.487Z,75.98
2018-07-09T01:44:00.474Z,76.26
2018-07-09T01:45:00.460Z,76.46
2018-07-09T01:46:00.452Z,76.36
2018-07-09T01:47:00.436Z,75.88
2018-07-09T01:48:00.423Z,75.31
2018-07-09T01:49:00.416Z,75.98
2018-07-09T01:50:00.397Z,76.17
2018-07-09T01:51:00.389Z,76.36
2018-07-09T01:52:00.372Z,76.26
2018-07-09T01:53:00.364Z,75.98
2018-07-09T01:54:00.347Z,76.17
2018-07-09T01:55:00.333Z,76.46
2018-07-09T01:56:00.320Z,76.56
2018-07-09T01:57:00.309Z,76.07
2018-07-09T01:58:00.295Z,75.98
2018-07-09T01:59:00.282Z,76.17
2018-07-09T02:00:00.270Z,76.75
2018-07-09T02:01:00.261Z,76.46
2018-07-09T02:02:00.244Z,76.65
2018-07-09T02:03:00.232Z,76.46
2018-07-09T02:04:00.221Z,76.46
2018-07-09T02:05:00.207Z,76.81
2018-07-09T02:06:00.195Z,77.48
2018-07-09T02:07:00.182Z,77.51
2018-07-09T02:08:00.167Z,77.48
2018-07-09T02:09:00.154Z,77.23
2018-07-09T02:10:00.146Z,77.23
2018-07-09T02:11:00.129Z,76.75
2018-07-09T02:12:00.116Z,77.13
2018-07-09T02:13:00.109Z,77.38
2018-07-09T02:14:00.094Z,77.19
2018-07-09T02:15:00.084Z,77.48
2018-07-09T02:16:00.064Z,78.15
2018-07-09T02:17:00.052Z,78.06
2018-07-09T02:18:00.040Z,78.15
2018-07-09T02:19:00.028Z,77.96
2018-07-09T02:20:00.036Z,78.53
2018-07-09T02:20:59.998Z,78.53
2018-07-09T02:21:59.987Z,79.02
2018-07-09T02:22:59.974Z,79.11
2018-07-09T02:23:59.961Z,78.34
2018-07-09T02:24:59.948Z,78.63
2018-07-09T02:25:59.934Z,79.21
2018-07-09T02:26:59.921Z,79.60
2018-07-09T02:27:59.910Z,79.69
2018-07-09T02:28:59.898Z,79.88
2018-07-09T02:29:59.883Z,79.40
2018-07-09T02:30:59.870Z,79.40
2018-07-09T02:31:59.857Z,79.60
2018-07-09T02:32:59.844Z,80.46
2018-07-09T02:33:59.829Z,80.46
2018-07-09T02:34:59.817Z,80.51
2018-07-09T02:35:59.804Z,80.42
2018-07-09T02:36:59.791Z,81.19
2018-07-09T02:37:59.777Z,80.99
2018-07-09T02:38:59.765Z,81.09
2018-07-09T02:39:59.756Z,81.19
2018-07-09T02:40:59.760Z,80.99
2018-07-09T02:41:59.725Z,80.71
2018-07-09T02:42:59.713Z,81.38
2018-07-09T02:43:59.699Z,81.09
2018-07-09T02:44:59.684Z,82.05
2018-07-09T02:45:59.673Z,80.90
2018-07-09T02:46:59.661Z,81.28
2018-07-09T02:47:59.648Z,80.42
2018-07-09T02:48:59.649Z,80.13
2018-07-09T02:49:59.619Z,80.32
2018-07-09T02:50:59.607Z,80.13
2018-07-09T02:51:59.594Z,79.55
2018-07-09T02:52:59.586Z,79.36
2018-07-09T02:53:59.567Z,79.55
2018-07-09T02:54:59.556Z,79.27
2018-07-09T02:55:59.549Z,79.55
2018-07-09T02:56:59.527Z,79.75
2018-07-09T02:57:59.514Z,79.65
2018-07-09T02:58:59.502Z,78.88
2018-07-09T02:59:59.490Z,78.98
2018-07-09T03:00:59.601Z,78.88
2018-07-09T03:01:59.459Z,79.07
2018-07-09T03:02:59.448Z,78.98
2018-07-09T03:03:59.435Z,78.78
2018-07-09T03:04:59.425Z,78.30
2018-07-09T03:05:59.408Z,78.30
2018-07-09T03:06:59.395Z,78.88
2018-07-09T03:07:59.384Z,79.07
2018-07-09T03:08:59.370Z,78.50
2018-07-09T03:09:59.353Z,78.11
2018-07-09T03:10:59.342Z,78.59
2018-07-09T03:11:59.329Z,78.21
2018-07-09T03:12:59.313Z,78.30
2018-07-09T03:13:59.301Z,78.69
2018-07-09T03:14:59.288Z,78.78
2018-07-09T03:15:59.276Z,78.50
2018-07-09T03:16:59.266Z,78.78
2018-07-09T03:17:59.249Z,78.50
2018-07-09T03:18:59.285Z,78.69
2018-07-09T03:19:59.218Z,78.69
2018-07-09T03:20:59.210Z,78.88
2018-07-09T03:21:59.199Z,78.69
2018-07-09T03:22:59.191Z,78.78
2018-07-09T03:23:59.168Z,78.88
2018-07-09T03:24:59.151Z,78.98
2018-07-09T03:25:59.200Z,79.27
2018-07-09T03:26:59.124Z,79.36
2018-07-09T03:27:59.114Z,79.36
2018-07-09T03:28:59.102Z,79.27
2018-07-09T03:29:59.085Z,80.04
2018-07-09T03:30:59.086Z,79.80
2018-07-09T03:31:59.073Z,79.42
2018-07-09T03:32:59.050Z,79.36
2018-07-09T03:33:59.031Z,79.36
2018-07-09T03:34:59.018Z,79.71
2018-07-09T03:35:59.004Z,79.71
2018-07-09T03:36:58.992Z,79.99
2018-07-09T03:37:58.982Z,79.52
2018-07-09T03:38:58.963Z,80.04
2018-07-09T03:39:58.950Z,80.04
2018-07-09T03:40:58.944Z,79.75
2018-07-09T03:41:58.923Z,79.84
2018-07-09T03:42:58.909Z,79.99
2018-07-09T03:43:58.901Z,79.52
2018-07-09T03:44:58.883Z,80.09
2018-07-09T03:45:58.867Z,79.80
2018-07-09T03:46:58.854Z,80.09
2018-07-09T03:47:58.843Z,79.99
2018-07-09T03:48:58.832Z,80.09
2018-07-09T03:49:58.818Z,80.38
2018-07-09T03:50:58.846Z,80.38
2018-07-09T03:51:58.784Z,80.47
2018-07-09T03:52:58.777Z,80.57
2018-07-09T03:53:58.760Z,80.76
2018-07-09T03:54:58.746Z,80.38
2018-07-09T03:55:58.740Z,80.57
2018-07-09T03:56:58.720Z,80.66
2018-07-09T03:57:58.705Z,81.05
2018-07-09T03:58:58.691Z,80.66
2018-07-09T03:59:58.677Z,80.86
2018-07-09T04:00:58.668Z,80.96
2018-07-09T04:01:58.651Z,80.73
2018-07-09T04:02:58.638Z,81.05
2018-07-09T04:03:58.622Z,81.49
2018-07-09T04:04:58.609Z,81.53
2018-07-09T04:05:58.597Z,81.20
2018-07-09T04:06:58.583Z,81.63
2018-07-09T04:07:58.573Z,81.53
2018-07-09T04:08:58.560Z,81.10
2018-07-09T04:09:58.543Z,81.78
2018-07-09T04:10:58.527Z,81.59
2018-07-09T04:12:17.744Z,82.26
2018-07-09T04:13:17.730Z,82.26
2018-07-09T04:14:17.709Z,82.26
2018-07-09T04:15:17.699Z,82.35
2018-07-09T04:16:17.685Z,82.07
2018-07-09T04:17:17.669Z,81.78
2018-07-09T04:18:17.655Z,81.97
2018-07-09T04:19:17.645Z,82.93
2018-07-09T04:20:17.631Z,82.84
2018-07-09T04:21:17.616Z,82.54
2018-07-09T04:22:17.602Z,82.84
2018-07-09T04:23:17.589Z,82.45
2018-07-09T04:24:17.576Z,82.78
2018-07-09T04:25:17.560Z,82.84
2018-07-09T04:26:17.575Z,82.45
2018-07-09T04:27:17.536Z,83.22
2018-07-09T04:28:17.519Z,82.93
2018-07-09T04:29:17.506Z,82.84
2018-07-09T04:30:17.492Z,82.64
2018-07-09T04:31:17.480Z,83.51
2018-07-09T04:32:17.466Z,83.31
2018-07-09T04:33:17.455Z,83.31
2018-07-09T04:34:17.438Z,82.84
2018-07-09T04:35:17.432Z,82.93
2018-07-09T04:36:17.413Z,82.93
2018-07-09T04:37:17.397Z,82.74
2018-07-09T04:38:17.385Z,82.78
2018-07-09T04:39:17.370Z,82.78
2018-07-09T04:40:17.356Z,83.07
2018-07-09T04:41:17.345Z,82.78
2018-07-09T04:42:17.331Z,82.10
2018-07-09T04:43:17.326Z,82.20
2018-07-09T04:44:17.301Z,82.10
2018-07-09T04:45:17.291Z,81.92
2018-07-09T04:46:17.276Z,82.10
2018-07-09T04:47:17.278Z,82.01
2018-07-09T04:48:17.252Z,82.01
2018-07-09T04:49:17.235Z,81.72
2018-07-09T04:50:17.222Z,81.82
2018-07-09T04:51:17.207Z,81.82
2018-07-09T04:52:17.198Z,81.24
2018-07-09T04:53:17.181Z,81.05
2018-07-09T04:54:17.168Z,80.96
2018-07-09T04:55:17.156Z,80.57
2018-07-09T04:56:17.145Z,80.57
2018-07-09T04:57:17.136Z,80.38
2018-07-09T04:58:17.112Z,80.28
2018-07-09T04:59:17.099Z,80.47
2018-07-09T05:00:17.088Z,80.19
2018-07-09T05:01:17.072Z,80.47
2018-07-09T05:02:17.060Z,80.09
2018-07-09T05:03:17.043Z,80.19
2018-07-09T05:04:17.032Z,80.38
2018-07-09T05:05:17.024Z,80.38
2018-07-09T05:06:17.012Z,80.47
2018-07-09T05:07:16.995Z,80.47
2018-07-09T05:08:16.979Z,79.90
2018-07-09T05:09:16.966Z,80.19
2018-07-09T05:10:16.954Z,79.94
2018-07-09T05:11:16.941Z,80.32
2018-07-09T05:12:16.925Z,80.38
2018-07-09T05:13:16.909Z,80.42
2018-07-09T05:14:16.898Z,79.99
2018-07-09T05:15:16.883Z,79.99
2018-07-09T05:16:16.870Z,80.32
2018-07-09T05:17:16.856Z,79.75
2018-07-09T05:18:16.841Z,78.98
2018-07-09T05:19:16.829Z,78.78
2018-07-09T05:20:16.816Z,78.59
2018-07-09T05:21:16.803Z,78.59
2018-07-09T05:22:16.788Z,78.59
2018-07-09T05:23:16.776Z,78.69
2018-07-09T05:24:16.766Z,78.78
2018-07-09T05:25:16.753Z,78.40
2018-07-09T05:26:16.737Z,78.59
2018-07-09T05:27:16.720Z,78.30
2018-07-09T05:28:16.708Z,78.59
2018-07-09T05:29:16.694Z,78.59
2018-07-09T05:30:16.681Z,78.30
2018-07-09T05:31:16.668Z,78.21
2018-07-09T05:32:16.654Z,77.83
2018-07-09T05:33:16.657Z,78.40
2018-07-09T05:34:16.629Z,78.21
2018-07-09T05:35:16.614Z,78.02
2018-07-09T05:36:16.601Z,78.15
2018-07-09T05:37:16.592Z,77.19
2018-07-09T05:38:16.583Z,76.81
2018-07-09T05:39:16.562Z,76.52
2018-07-09T05:40:16.554Z,76.42
2018-07-09T05:41:16.534Z,76.71
2018-07-09T05:42:16.521Z,76.42
2018-07-09T05:43:16.508Z,76.52
2018-07-09T05:44:16.498Z,76.71
2018-07-09T05:45:16.482Z,76.42
2018-07-09T05:46:16.466Z,76.42
2018-07-09T05:47:16.458Z,76.42
2018-07-09T05:48:16.440Z,75.94
2018-07-09T05:49:16.430Z,75.94
2018-07-09T05:50:16.416Z,76.04
2018-07-09T05:51:16.405Z,75.94
2018-07-09T05:52:16.392Z,76.04
2018-07-09T05:53:16.417Z,75.11
2018-07-09T05:54:16.364Z,75.27
2018-07-09T05:55:16.351Z,75.40
2018-07-09T05:56:16.335Z,75.79
2018-07-09T05:57:16.326Z,74.73
2018-07-09T05:58:16.310Z,74.73
2018-07-09T05:59:16.296Z,74.05
2018-07-09T06:00:16.285Z,73.86
2018-07-09T06:01:16.269Z,74.15
2018-07-09T06:02:16.258Z,74.25
2018-07-09T06:03:16.246Z,74.34
2018-07-09T06:04:16.231Z,74.15
2018-07-09T06:05:16.218Z,73.86
2018-07-09T06:06:16.204Z,73.77
2018-07-09T06:07:16.191Z,74.15
2018-07-09T06:08:16.181Z,73.96
2018-07-09T06:09:16.166Z,73.96
2018-07-09T06:10:16.152Z,73.86
2018-07-09T06:11:16.238Z,74.19
2018-07-09T06:12:16.129Z,73.99
2018-07-09T06:13:16.124Z,73.47
2018-07-09T06:14:16.102Z,73.22
2018-07-09T06:15:16.089Z,72.90
2018-07-09T06:16:16.076Z,73.38
2018-07-09T06:17:16.063Z,73.22
2018-07-09T06:18:16.055Z,73.47
2018-07-09T06:19:16.062Z,73.38
2018-07-09T06:20:16.027Z,73.42
2018-07-09T06:21:16.010Z,72.94
2018-07-09T06:22:16.000Z,73.42
2018-07-09T06:23:15.984Z,73.19
2018-07-09T06:24:15.972Z,72.71
2018-07-09T06:25:15.959Z,73.71
2018-07-09T06:26:15.944Z,73.42
2018-07-09T06:27:15.934Z,73.22
2018-07-09T06:28:15.922Z,72.55
2018-07-09T06:29:15.907Z,72.26
2018-07-09T06:30:15.896Z,72.65
2018-07-09T06:31:15.886Z,72.36
2018-07-09T06:32:15.869Z,72.36
2018-07-09T06:33:15.861Z,72.26
2018-07-09T06:34:15.844Z,72.17
2018-07-09T06:35:15.831Z,72.26
2018-07-09T06:36:15.817Z,72.45
2018-07-09T06:37:15.806Z,71.88
2018-07-09T06:38:15.800Z,71.59
2018-07-09T06:39:15.782Z,72.07
2018-07-09T06:40:15.768Z,72.45
2018-07-09T06:41:15.755Z,71.88
2018-07-09T06:42:15.742Z,71.30
2018-07-09T06:43:15.730Z,71.69
2018-07-09T06:44:15.717Z,71.78
2018-07-09T06:45:15.704Z,71.88
2018-07-09T06:46:15.691Z,71.20
2018-07-09T06:47:15.677Z,71.11
2018-07-09T06:48:15.680Z,70.72
2018-07-09T06:49:15.658Z,71.01
2018-07-09T06:50:15.639Z,72.20
2018-07-09T06:51:15.625Z,70.66
2018-07-09T06:52:15.618Z,70.18
2018-07-09T06:53:15.603Z,70.76
2018-07-09T06:54:15.588Z,71.04
2018-07-09T06:55:15.576Z,69.89
2018-07-09T06:56:15.604Z,69.41
2018-07-09T06:57:15.562Z,69.79
2018-07-09T06:58:15.538Z,70.31
2018-07-09T06:59:15.525Z,69.64
2018-07-09T07:00:15.517Z,69.93
2018-07-09T07:01:15.500Z,69.54
2018-07-09T07:02:15.531Z,69.54
2018-07-09T07:03:15.477Z,69.54
2018-07-09T07:04:15.464Z,69.25
2018-07-09T07:05:15.452Z,69.15
2018-07-09T07:06:15.446Z,69.25
2018-07-09T07:07:15.425Z,67.71
2018-07-09T07:08:15.419Z,68.00
2018-07-09T07:09:15.491Z,67.65
2018-07-09T07:10:15.440Z,68.42
2018-07-09T07:11:15.376Z,67.74
2018-07-09T07:12:15.380Z,67.65
2018-07-09T07:13:15.352Z,67.36
2018-07-09T07:14:15.355Z,67.36
2018-07-09T07:15:15.330Z,66.39
2018-07-09T07:16:15.317Z,66.20
2018-07-09T07:17:15.307Z,66.30
2018-07-09T07:18:15.293Z,66.20
2018-07-09T07:19:15.284Z,66.49
2018-07-09T07:20:15.270Z,67.16
2018-07-09T07:21:15.257Z,66.24
2018-07-09T07:22:15.245Z,67.88
2018-07-09T07:23:15.231Z,65.66
2018-07-09T07:24:15.220Z,65.37
2018-07-09T07:25:15.210Z,65.56
2018-07-09T07:26:15.194Z,65.47
2018-07-09T07:27:15.184Z,65.08
2018-07-09T07:28:15.180Z,65.88
2018-07-09T07:29:15.161Z,65.59
2018-07-09T07:30:15.147Z,65.01
2018-07-09T07:31:15.137Z,64.72
2018-07-09T07:32:15.127Z,64.24
2018-07-09T07:33:15.193Z,64.72
2018-07-09T07:34:15.109Z,65.01
2018-07-09T07:35:15.089Z,64.05
2018-07-09T07:36:15.078Z,64.24
2018-07-09T07:37:15.067Z,64.82
2018-07-09T07:38:15.054Z,65.11
2018-07-09T07:39:15.105Z,64.05
2018-07-09T07:40:15.032Z,64.34
2018-07-09T07:41:15.021Z,64.92
2018-07-09T07:42:15.007Z,64.95
2018-07-09T07:43:14.996Z,63.79
2018-07-09T07:44:14.985Z,63.70
2018-07-09T07:45:14.974Z,63.21
2018-07-09T07:46:14.961Z,63.50
2018-07-09T07:47:14.951Z,63.12
2018-07-09T07:48:14.939Z,63.12
2018-07-09T07:49:14.931Z,63.70
2018-07-09T07:50:14.979Z,63.79
2018-07-09T07:51:14.905Z,63.40
2018-07-09T07:52:14.909Z,63.43
2018-07-09T07:53:14.885Z,62.76
2018-07-09T07:54:14.871Z,62.18
2018-07-09T07:55:14.861Z,61.60
2018-07-09T07:56:14.850Z,61.92
2018-07-09T07:57:14.841Z,61.63
2018-07-09T07:58:14.826Z,60.60
2018-07-09T07:59:14.816Z,60.24
2018-07-09T08:00:14.805Z,58.95
2018-07-09T08:01:14.795Z,57.62
2018-07-09T08:02:14.785Z,56.32
2018-07-09T08:03:14.773Z,52.88
2018-07-09T08:04:14.764Z,50.68
2018-07-09T08:05:14.756Z,49.34
2018-07-09T08:06:14.740Z,49.00
2018-07-09T08:07:14.728Z,48.05
2018-07-09T08:08:14.736Z,46.05
2018-07-09T08:09:14.780Z,45.12
2018-07-09T08:10:14.702Z,43.88
2018-07-09T08:11:14.689Z,43.00
2018-07-09T08:13:00.542Z,42.79
2018-07-09T08:13:27.979Z,44.10
2018-07-09T08:14:14.657Z,44.40
2018-07-09T08:15:14.649Z,44.57
2018-07-09T08:16:14.641Z,44.40
2018-07-09T08:17:14.638Z,44.40
2018-07-09T08:18:14.622Z,44.30
2018-07-09T08:19:14.612Z,44.69
2018-07-09T08:20:14.609Z,44.49
2018-07-09T08:21:14.596Z,44.10
2018-07-09T08:22:14.591Z,44.62
2018-07-09T08:23:14.583Z,44.62
2018-07-09T08:24:14.573Z,44.54
2018-07-09T08:25:14.637Z,43.49
2018-07-09T08:26:14.558Z,43.00
2018-07-09T08:27:14.552Z,42.02
2018-07-09T08:28:14.548Z,42.71
2018-07-09T08:29:14.542Z,42.66
2018-07-09T08:30:14.533Z,43.91
2018-07-09T08:31:14.570Z,44.48
2018-07-09T08:32:14.521Z,45.84
2018-07-09T08:33:14.523Z,45.01
2018-07-09T08:34:14.521Z,46.08
2018-07-09T08:35:14.505Z,47.03
2018-07-09T08:36:14.500Z,46.96
2018-07-09T08:37:14.498Z,47.34
2018-07-09T08:38:14.493Z,46.47
2018-07-09T08:39:14.487Z,46.25
2018-07-09T08:40:14.479Z,46.15
2018-07-09T08:41:14.479Z,47.13
2018-07-09T08:42:14.470Z,48.58
2018-07-09T08:43:14.463Z,47.23
2018-07-09T08:44:14.462Z,46.28
2018-07-09T08:45:14.457Z,45.98
2018-07-09T08:46:14.449Z,45.23
2018-07-09T08:47:14.450Z,45.14
2018-07-09T08:48:14.443Z,45.52
2018-07-09T08:49:14.439Z,45.54
2018-07-09T08:50:14.435Z,43.70
2018-07-09T08:51:14.430Z,43.58
2018-07-09T08:52:14.426Z,44.06
2018-07-09T08:53:14.473Z,44.33
2018-07-09T08:54:14.417Z,43.92
2018-07-09T08:55:14.440Z,44.51
2018-07-09T08:56:14.412Z,45.17
2018-07-09T08:57:14.409Z,45.04
2018-07-09T08:58:14.401Z,45.94
2018-07-09T08:59:14.397Z,45.84
2018-07-09T09:00:14.393Z,44.58
2018-07-09T09:01:14.389Z,45.48
2018-07-09T09:02:14.385Z,45.38
2018-07-09T09:03:14.381Z,44.99
2018-07-09T09:04:14.376Z,45.21
2018-07-09T09:05:14.374Z,44.16
2018-07-09T09:06:14.369Z,43.09
2018-07-09T09:07:14.365Z,42.90
2018-07-09T09:08:14.362Z,42.99
2018-07-09T09:09:14.359Z,41.93
2018-07-09T09:10:14.354Z,41.05
2018-07-09T09:11:14.347Z,41.44
2018-07-09T09:12:14.343Z,42.10
2018-07-09T09:13:14.343Z,42.36
2018-07-09T09:14:14.340Z,42.46
2018-07-09T09:15:14.338Z,42.39
2018-07-09T09:16:14.325Z,42.41
2018-07-09T09:17:14.325Z,41.63
2018-07-09T09:18:14.320Z,42.14
2018-07-09T09:19:14.316Z,39.51
2018-07-09T09:20:14.311Z,38.93
2018-07-09T09:21:14.303Z,39.31
2018-07-09T09:22:14.299Z,39.51
2018-07-09T09:23:14.294Z,38.54
2018-07-09T09:24:14.294Z,38.05
2018-07-09T09:25:14.287Z,39.12
2018-07-09T09:26:14.284Z,38.34
2018-07-09T09:27:14.278Z,38.24
2018-07-09T09:28:14.275Z,38.05
2018-07-09T09:29:14.269Z,38.15
2018-07-09T09:30:14.263Z,36.69
2018-07-09T09:31:14.276Z,37.27
2018-07-09T09:32:14.260Z,39.31
2018-07-09T09:33:14.252Z,38.26
2018-07-09T09:34:14.253Z,37.31
2018-07-09T09:35:14.242Z,35.75
2018-07-09T09:36:14.237Z,34.89
2018-07-09T09:37:14.243Z,35.08
2018-07-09T09:38:14.230Z,34.68
2018-07-09T09:39:14.225Z,36.02
2018-07-09T09:40:14.230Z,36.92
2018-07-09T09:41:14.220Z,36.84
2018-07-09T09:42:14.212Z,36.76
2018-07-09T09:43:14.245Z,34.12
2018-07-09T09:44:14.205Z,33.46
2018-07-09T09:45:14.205Z,33.95
2018-07-09T09:46:14.195Z,33.98
2018-07-09T09:47:14.193Z,32.24
2018-07-09T09:48:14.189Z,32.13
2018-07-09T09:49:14.185Z,31.75
2018-07-09T09:50:14.180Z,31.96
2018-07-09T09:51:14.190Z,31.08
2018-07-09T09:52:14.173Z,30.80
2018-07-09T09:53:14.170Z,30.12
2018-07-09T09:54:14.167Z,31.28
2018-07-09T09:55:14.162Z,30.90
2018-07-09T09:56:14.161Z,31.01
2018-07-09T09:57:14.159Z,30.33
2018-07-09T09:58:14.152Z,31.81
2018-07-09T09:59:14.150Z,29.38
2018-07-09T10:00:14.152Z,29.88
2018-07-09T10:01:14.144Z,27.74
2018-07-09T10:02:14.144Z,27.55
2018-07-09T10:03:14.138Z,27.74
2018-07-09T10:04:14.135Z,27.24
2018-07-09T10:05:14.137Z,28.79
2018-07-09T10:06:14.160Z,28.77
2018-07-09T10:07:14.127Z,28.36
2018-07-09T10:08:14.124Z,29.02
2018-07-09T10:09:14.122Z,29.60
2018-07-09T10:10:14.119Z,29.39
2018-07-09T10:11:14.114Z,30.57
2018-07-09T10:12:14.114Z,31.72
2018-07-09T10:13:14.113Z,30.93
2018-07-09T10:14:14.107Z,30.63
2018-07-09T10:15:14.109Z,31.20
2018-07-09T10:16:14.104Z,30.80
2018-07-09T10:17:14.100Z,32.35
2018-07-09T10:18:14.095Z,31.56
2018-07-09T10:19:14.094Z,31.37
2018-07-09T10:20:14.097Z,31.17
2018-07-09T10:21:14.087Z,31.54
2018-07-09T10:22:14.083Z,32.15
2018-07-09T10:23:14.171Z,31.37
2018-07-09T10:24:14.076Z,30.18
2018-07-09T10:25:14.075Z,31.35
2018-07-09T10:26:14.074Z,30.58
2018-07-09T10:27:14.066Z,31.77
2018-07-09T10:28:14.063Z,30.32
2018-07-09T10:29:14.063Z,29.66
2018-07-09T10:30:14.059Z,29.85
2018-07-09T10:31:14.054Z,30.18
2018-07-09T10:32:14.059Z,29.70
2018-07-09T10:33:14.050Z,28.64
2018-07-09T10:34:14.044Z,27.77
2018-07-09T10:35:14.042Z,27.78
2018-07-09T10:36:14.040Z,26.93
2018-07-09T10:37:14.038Z,27.53
2018-07-09T10:38:14.035Z,25.40
2018-07-09T10:39:14.032Z,23.34
2018-07-09T10:40:14.032Z,23.54
2018-07-09T10:41:14.032Z,23.45
2018-07-09T10:42:14.025Z,22.10
2018-07-09T10:43:14.022Z,23.40
2018-07-09T10:44:14.022Z,21.64
2018-07-09T10:45:14.023Z,20.17
2018-07-09T10:46:14.019Z,21.06
2018-07-09T10:47:14.060Z,20.48
2018-07-09T10:48:14.016Z,21.37
2018-07-09T10:49:14.013Z,21.39
2018-07-09T10:50:14.011Z,20.30
2018-07-09T10:51:14.014Z,20.09
2018-07-09T10:52:14.009Z,21.57
2018-07-09T10:53:14.010Z,21.67
2018-07-09T10:54:14.009Z,22.77
2018-07-09T10:55:14.045Z,21.58
2018-07-09T10:56:14.004Z,22.56
2018-07-09T10:57:14.004Z,22.09
2018-07-09T10:58:14.006Z,21.59
2018-07-09T10:59:14.004Z,21.39
2018-07-09T11:00:14.000Z,21.36
2018-07-09T11:01:14.001Z,23.33
2018-07-09T11:02:14.000Z,23.53
2018-07-09T11:03:14.000Z,23.63
2018-07-09T11:04:13.996Z,24.13
2018-07-09T11:05:13.997Z,22.95
2018-07-09T11:06:13.997Z,23.05
2018-07-09T11:07:13.993Z,22.84
2018-07-09T11:08:13.994Z,22.93
2018-07-09T11:09:13.994Z,24.59
2018-07-09T11:10:13.995Z,24.38
2018-07-09T11:11:13.992Z,24.48
2018-07-09T11:12:13.994Z,24.48
2018-07-09T11:13:13.991Z,25.45
2018-07-09T11:14:13.991Z,26.31
2018-07-09T11:15:13.991Z,26.79
2018-07-09T11:16:14.025Z,27.08
2018-07-09T11:17:14.007Z,27.77
2018-07-09T11:18:13.986Z,26.97
2018-07-09T11:19:13.988Z,26.96
2018-07-09T11:20:13.984Z,28.22
2018-07-09T11:21:13.988Z,29.20
2018-07-09T11:22:13.985Z,28.91
2018-07-09T11:23:13.984Z,28.89
2018-07-09T11:24:13.981Z,29.25
2018-07-09T11:25:13.985Z,30.93
2018-07-09T11:26:13.992Z,31.54
2018-07-09T11:27:13.978Z,29.66
2018-07-09T11:28:13.980Z,31.44
2018-07-09T11:29:13.981Z,29.49
2018-07-09T11:30:13.978Z,28.71
2018-07-09T11:31:13.978Z,28.51
2018-07-09T11:32:13.978Z,29.21
2018-07-09T11:33:13.977Z,28.83
2018-07-09T11:34:13.972Z,28.05
2018-07-09T11:35:13.972Z,29.35
2018-07-09T11:36:13.973Z,26.91
2018-07-09T11:37:13.971Z,27.02
2018-07-09T11:38:13.972Z,26.82
2018-07-09T11:39:13.972Z,26.84
2018-07-09T11:40:13.976Z,25.77
2018-07-09T11:41:13.972Z,25.09
2018-07-09T11:42:14.030Z,25.39
2018-07-09T11:43:14.012Z,25.37
2018-07-09T11:44:13.972Z,25.95
2018-07-09T11:45:13.979Z,28.02
2018-07-09T11:46:13.966Z,28.03
2018-07-09T11:47:13.970Z,27.44
2018-07-09T11:48:13.966Z,27.36
2018-07-09T11:49:13.970Z,26.78
2018-07-09T11:50:13.968Z,26.08
2018-07-09T11:51:13.967Z,25.67
2018-07-09T11:52:14.033Z,26.04
2018-07-09T11:53:13.967Z,27.00
2018-07-09T11:54:13.966Z,28.37
2018-07-09T11:55:13.969Z,28.09
2018-07-09T11:56:13.977Z,27.99
2018-07-09T11:57:13.967Z,28.17
2018-07-09T11:58:13.964Z,28.13
2018-07-09T11:59:13.963Z,29.18
2018-07-09T12:00:13.964Z,30.83
2018-07-09T12:01:13.971Z,31.21
2018-07-09T12:02:13.960Z,31.88
2018-07-09T12:03:13.962Z,32.65
2018-07-09T12:04:13.966Z,32.82
2018-07-09T12:05:13.967Z,33.69
2018-07-09T12:06:13.967Z,33.98
2018-07-09T12:07:13.954Z,34.77
2018-07-09T12:08:14.000Z,35.04
2018-07-09T12:09:13.956Z,34.84
2018-07-09T12:10:13.951Z,35.02
2018-07-09T12:11:13.948Z,36.27
2018-07-09T12:12:13.955Z,36.96
2018-07-09T12:13:13.947Z,38.02
2018-07-09T12:14:13.945Z,37.33
2018-07-09T12:15:13.942Z,38.10
2018-07-09T12:16:13.944Z,38.10
2018-07-09T12:17:13.988Z,38.09
2018-07-09T12:18:13.935Z,38.28
2018-07-09T12:19:13.930Z,38.07
2018-07-09T12:20:13.928Z,39.34
2018-07-09T12:21:13.981Z,38.95
2018-07-09T12:22:13.923Z,39.62
2018-07-09T12:23:13.925Z,39.43
2018-07-09T12:24:13.920Z,39.43
2018-07-09T12:25:13.916Z,39.34
2018-07-09T12:26:13.916Z,39.43
2018-07-09T12:27:13.911Z,40.41
2018-07-09T12:28:13.909Z,39.53
2018-07-09T12:29:14.066Z,39.62
2018-07-09T12:30:13.904Z,39.94
2018-07-09T12:31:13.899Z,40.52
2018-07-09T12:32:13.895Z,41.01
2018-07-09T12:33:13.896Z,39.84
2018-07-09T12:34:13.892Z,39.55
2018-07-09T12:35:13.894Z,39.94
2018-07-09T12:36:14.024Z,39.62
2018-07-09T12:37:13.882Z,40.09
2018-07-09T12:38:13.876Z,41.46
2018-07-09T12:39:13.875Z,41.05
2018-07-09T12:40:13.871Z,41.44
2018-07-09T12:41:13.871Z,41.22
2018-07-09T12:42:13.872Z,42.39
2018-07-09T12:43:13.859Z,41.90
2018-07-09T12:44:13.859Z,42.97
2018-07-09T12:45:13.853Z,42.87
2018-07-09T12:46:13.848Z,43.16
2018-07-09T12:47:13.855Z,42.78
2018-07-09T12:48:13.843Z,42.68
2018-07-09T12:49:13.838Z,42.49
2018-07-09T12:50:13.834Z,43.85
2018-07-09T12:51:13.831Z,43.34
2018-07-09T12:52:13.827Z,43.46
2018-07-09T12:53:13.826Z,43.65
2018-07-09T12:54:13.818Z,43.16
2018-07-09T12:55:13.818Z,43.85
2018-07-09T12:56:13.812Z,42.39
2018-07-09T12:57:13.811Z,42.97